Latest Weather Observations for Trangie

IDN60801

Issued at 1:53 am EDT Friday 29 January 2021 (issued every 10 minutes, with the page automatically refreshed every 10 minutes)

About weather observations | Map of weather stations | Latest weather observations for NSW | Other Formats
Station Details ID: 051049 Name: TRANGIE RESEARCH STATION AWS Lat: -31.99 Lon: 147.95 Height: 215.0 m
Data from the previous 72 hours. | See also: Recent months at Trangie
Date/Time
EDT
Temp
°C
App
Temp
°C
Dew
Point
°C
Rel
Hum
%
Delta-T
°C
Wind Press
QNH
hPa
Press
MSL
hPa
Rain since
9am
mm
Dir  Spd
km/h
Gust
km/h
Spd
kts
Gust
kts
29/01:30am 22.4 18.9 14.5 61 4.7 E 26 41 14 22 1013.5 1012.2 0.0
29/01:01am 22.7 18.8 14.5 60 4.9 E 28 46 15 25 1013.7 1012.4 0.0
29/01:00am 22.7 19.2 14.5 60 4.9 E 26 43 14 23 1013.7 1012.4 0.0
29/12:52am 22.8 18.9 14.4 59 5.0 E 28 50 15 27 1013.7 1012.4 0.0
29/12:30am 22.9 20.2 14.5 59 5.0 E 22 44 12 24 1013.8 1012.5 0.0
29/12:15am 23.0 19.1 14.3 58 5.2 E 28 52 15 28 1013.9 1012.6 0.0
29/12:00am 23.0 19.8 14.3 58 5.2 E 24 39 13 21 1014.0 1012.7 0.0
 
Date/Time
EDT
Temp
°C
App
Temp
°C
Dew
Point
°C
Rel
Hum
%
Delta-T
°C
Wind Press
QNH
hPa
Press
MSL
hPa
Rain since
9am
mm
Dir  Spd
km/h
Gust
km/h
Spd
kts
Gust
kts
28/11:30pm 23.1 19.8 14.1 57 5.3 E 24 41 13 22 1014.2 1012.9 0.0
28/11:03pm 23.3 19.4 14.3 57 5.3 E 28 46 15 25 1014.0 1012.7 0.0
28/11:00pm 23.4 19.9 14.4 57 5.4 E 26 43 14 23 1014.1 1012.8 0.0
28/10:54pm 23.4 19.4 14.1 56 5.5 E 28 46 15 25 1014.2 1012.9 0.0
28/10:30pm 23.7 20.4 14.1 55 5.7 E 24 41 13 22 1014.0 1012.7 0.0
28/10:10pm 24.0 20.5 14.4 55 5.7 E 26 46 14 25 1014.0 1012.7 0.0
28/10:00pm 24.1 20.2 14.5 55 5.7 E 28 43 15 23 1013.9 1012.6 0.0
28/09:45pm 24.3 20.4 14.4 54 5.9 E 28 46 15 25 1013.6 1012.3 0.0
28/09:30pm 24.5 20.7 14.6 54 5.9 E 28 44 15 24 1013.3 1012.0 0.0
28/09:00pm 25.0 21.7 15.0 53 6.1 E 26 46 14 25 1012.7 1011.5 0.0
28/08:31pm 25.6 21.5 15.0 52 6.4 E 30 50 16 27 1012.5 1011.3 0.0
28/08:30pm 25.6 21.5 15.0 52 6.4 E 30 46 16 25 1012.6 1011.4 0.0
28/08:00pm 26.5 23.0 15.5 50 6.8 E 28 46 15 25 1012.2 1011.0 0.0
28/07:30pm 27.2 23.3 15.6 49 7.1 E 30 57 16 31 1011.8 1010.6 0.0
28/07:10pm 27.8 24.4 15.8 48 7.4 E 28 46 15 25 1011.4 1010.2 0.0
28/07:00pm 28.3 24.9 15.9 47 7.7 E 28 43 15 23 1011.2 1010.0 0.0
28/06:34pm 29.4 26.2 16.2 44 8.3 E 28 46 15 25 1011.1 1009.9 0.0
28/06:30pm 29.4 25.7 15.9 44 8.4 E 30 46 16 25 1011.1 1009.9 0.0
28/06:00pm 31.1 27.9 16.3 41 9.4 E 28 50 15 27 1010.9 1009.6 0.0
28/05:37pm 31.5 28.3 16.3 40 9.6 E 28 46 15 25 1010.8 1009.5 0.0
28/05:30pm 31.5 28.5 15.9 39 9.8 E 26 44 14 24 1010.8 1009.5 0.0
28/05:14pm 32.3 29.1 16.2 38 10.2 E 28 46 15 25 1010.9 1009.6 0.0
28/05:00pm 32.5 29.7 16.3 37 10.3 E 26 43 14 23 1010.9 1009.6 0.0
28/04:48pm 32.6 29.3 16.0 36 10.5 E 28 48 15 26 1011.0 1009.8 0.0
28/04:30pm 32.4 29.4 15.8 36 10.4 E 26 43 14 23 1011.1 1009.9 0.0
28/04:00pm 32.3 29.4 16.2 38 10.2 E 26 41 14 22 1011.4 1010.2 0.0
28/03:30pm 33.3 30.8 16.2 36 10.9 E 24 35 13 19 1011.8 1010.6 0.0
28/03:00pm 34.3 32.6 17.1 36 11.1 E 22 37 12 20 1012.1 1010.9 0.0
28/02:30pm 32.7 30.6 16.1 37 10.5 E 22 35 12 19 1012.5 1011.3 0.0
28/02:00pm 32.2 30.1 16.1 38 10.2 ENE 22 37 12 20 1012.9 1011.7 0.0
28/01:30pm 31.8 29.7 16.1 38 9.9 ENE 22 33 12 18 1013.6 1012.3 0.0
28/01:00pm 31.0 28.7 16.6 42 9.1 E 24 39 13 21 1014.0 1012.7 0.0
28/12:30pm 30.7 27.5 16.3 42 9.1 E 28 44 15 24 1014.1 1012.8 0.0
28/12:00pm 28.4 26.0 16.3 47 7.6 ENE 24 33 13 18 1014.6 1013.3 0.0
28/11:30am 27.8 26.2 16.4 50 7.1 E 20 32 11 17 1014.7 1013.4 0.0
28/11:00am 26.8 24.3 16.1 52 6.6 ENE 24 41 13 22 1014.9 1013.6 0.0
28/10:30am 26.6 24.1 16.2 52 6.5 ENE 24 37 13 20 1014.9 1013.6 0.0
28/10:00am 25.9 23.4 16.2 55 6.0 ENE 24 39 13 21 1015.1 1013.9 0.0
28/09:30am 25.4 23.3 16.3 57 5.6 E 22 35 12 19 1015.0 1013.7 0.0
28/09:01am 24.9 21.6 16.1 58 5.4 E 28 54 15 29 1014.3 1013.0 0.0
28/09:00am 25.0 22.0 15.9 57 5.6 E 26 54 14 29 1014.3 1013.0 0.0
28/08:41am 24.3 21.0 16.0 60 5.1 E 28 52 15 28 1014.6 1013.3 0.0
28/08:30am 24.2 20.5 15.9 59 5.1 ENE 30 44 16 24 1014.6 1013.3 0.0
28/08:21am 24.0 20.7 16.0 61 4.9 E 28 48 15 26 1014.5 1013.2 0.0
28/08:00am 23.6 20.6 15.9 62 4.7 E 26 44 14 24 1014.1 1012.8 0.0
28/07:36am 22.9 19.5 15.7 64 4.4 ENE 28 48 15 26 1013.4 1012.1 0.0
28/07:30am 23.1 20.4 15.7 63 4.5 ENE 24 43 13 23 1013.4 1012.1 0.0
28/07:11am 22.8 19.4 15.9 65 4.2 E 28 46 15 25 1013.3 1012.0 0.0
28/07:00am 22.5 19.9 15.8 66 4.1 E 24 43 13 23 1013.1 1011.9 0.0
28/06:30am 22.3 19.7 15.9 67 3.9 E 24 41 13 22 1012.5 1011.3 0.0
28/06:00am 22.3 19.6 15.6 66 4.1 E 24 41 13 22 1012.2 1011.0 0.0
28/05:30am 22.2 19.6 15.8 67 3.9 E 24 37 13 20 1012.0 1010.8 0.0
28/05:00am 22.3 19.6 15.6 66 4.1 E 24 39 13 21 1011.6 1010.4 0.0
28/04:32am 22.4 18.9 15.5 65 4.2 E 28 48 15 26 1011.5 1010.3 0.0
28/04:30am 22.4 19.3 15.5 65 4.2 E 26 41 14 22 1011.5 1010.3 0.0
28/04:00am 22.6 19.5 15.7 65 4.2 E 26 41 14 22 1011.7 1010.5 0.0
28/03:30am 22.7 20.1 15.8 65 4.2 ENE 24 43 13 23 1011.6 1010.4 0.0
28/03:00am 22.9 20.2 15.7 64 4.4 E 24 41 13 22 1011.8 1010.6 0.0
28/02:30am 23.0 21.0 15.6 63 4.5 E 20 32 11 17 1012.2 1011.0 0.0
28/02:00am 23.2 20.9 15.8 63 4.5 E 22 39 12 21 1011.9 1010.7 0.0
28/01:30am 23.2 20.9 15.8 63 4.5 E 22 37 12 20 1011.5 1010.3 0.0
28/01:13am 23.4 20.1 16.0 63 4.5 E 28 48 15 26 1011.3 1010.1 0.0
28/01:00am 23.5 20.6 16.1 63 4.5 E 26 43 14 23 1011.3 1010.1 0.0
28/12:30am 23.7 20.4 16.0 62 4.7 E 28 54 15 29 1010.9 1009.6 0.0
28/12:14am 23.8 20.5 16.1 62 4.7 E 28 46 15 25 1010.9 1009.6 0.0
28/12:00am 23.9 21.4 16.2 62 4.7 E 24 41 13 22 1011.0 1009.8 0.0
 
Date/Time
EDT
Temp
°C
App
Temp
°C
Dew
Point
°C
Rel
Hum
%
Delta-T
°C
Wind Press
QNH
hPa
Press
MSL
hPa
Rain since
9am
mm
Dir  Spd
km/h
Gust
km/h
Spd
kts
Gust
kts
27/11:30pm 24.2 21.0 16.2 61 4.9 E 28 48 15 26 1010.8 1009.5 0.0
27/11:00pm 24.7 21.1 16.2 59 5.2 E 30 50 16 27 1010.5 1009.2 0.0
27/10:51pm 25.0 21.8 16.2 58 5.4 E 28 48 15 26 1010.6 1009.3 0.0
27/10:30pm 25.4 22.7 16.5 58 5.5 E 26 46 14 25 1010.6 1009.3 0.0
27/10:00pm 25.9 22.8 16.5 56 5.9 E 28 46 15 25 1010.1 1008.8 0.0
27/09:38pm 26.9 24.0 17.1 55 6.2 E 28 46 15 25 1009.6 1008.3 0.0
27/09:30pm 27.5 25.9 17.4 54 6.4 E 22 39 12 21 1009.4 1008.1 0.0
27/09:00pm 28.9 27.6 18.1 52 7.0 ESE 22 43 12 23 1008.6 1007.3 0.0
27/08:30pm 29.9 29.2 18.7 51 7.3 E 20 32 11 17 1007.9 1006.7 0.0
27/08:00pm 30.6 29.6 19.6 51 7.3 E 24 37 13 20 1007.3 1006.1 0.0
27/07:42pm 31.6 29.4 17.9 44 8.9 E 26 43 14 23 1007.0 1005.8 0.0
27/07:30pm 36.9 36.0 14.8 26 13.9 S 13 22 7 12 1006.4 1005.1 0.0
27/07:00pm 36.5 36.4 15.0 27 13.6 SSE 9 17 5 9 1006.2 1004.9 0.0
27/06:30pm 36.6 35.8 15.1 27 13.6 SSE 13 20 7 11 1005.9 1004.6 0.0
27/06:00pm 37.6 37.1 14.8 25 14.4 SSE 11 19 6 10 1005.8 1004.5 0.0
27/05:30pm 38.0 37.8 15.7 26 14.3 ESE 11 17 6 9 1005.7 1004.4 0.0
27/05:00pm 36.9 37.1 14.8 26 14.0 SE 7 15 4 8 1005.8 1004.5 0.0
27/04:30pm 37.0 37.1 15.5 28 13.7 SSE 9 15 5 8 1005.9 1004.6 0.0
27/04:00pm 38.2 37.7 15.9 26 14.4 WSW 13 24 7 13 1006.3 1005.0 0.0
27/03:30pm 36.6 36.6 16.2 29 13.1 WNW 11 19 6 10 1006.6 1005.3 0.0
27/03:00pm 36.8 36.5 16.4 30 13.2 W 13 20 7 11 1006.9 1005.7 0.0
27/02:30pm 36.3 35.0 15.9 29 13.0 W 17 28 9 15 1007.1 1005.9 0.0
27/02:00pm 36.8 37.4 16.9 31 12.9 SSE 9 15 5 8 1007.3 1006.1 0.0
27/01:30pm 37.0 36.7 16.5 29 13.2 SW 13 28 7 15 1007.5 1006.3 0.0
27/01:00pm 36.3 36.2 17.0 32 12.5 SSW 13 26 7 14 1007.8 1006.6 0.0
27/12:30pm 35.8 37.1 17.5 34 11.9 SSW 7 15 4 8 1008.1 1006.9 0.0
27/12:00pm 35.0 36.0 17.7 36 11.3 SE 9 15 5 8 1008.2 1007.0 0.0
27/11:30am 34.4 35.9 17.6 37 10.9 NNW 6 17 3 9 1008.6 1007.3 0.0
27/11:00am 33.1 33.9 17.3 39 10.2 NNE 9 13 5 7 1008.7 1007.4 0.0
27/10:30am 32.8 34.7 18.6 43 9.3 ENE 6 9 3 5 1008.5 1007.2 0.0
27/10:00am 31.2 33.6 18.9 48 8.1 ESE 4 9 2 5 1008.3 1007.1 0.0
27/09:30am 29.5 31.4 18.9 53 6.9 S 7 13 4 7 1008.5 1007.2 0.0
27/09:00am 28.6 30.6 19.2 56 6.1 S 7 11 4 6 1008.5 1007.2 0.0
27/08:30am 26.9 28.3 19.5 64 4.8 SSW 11 15 6 8 1008.1 1006.9 0.0
27/08:00am 25.2 27.1 19.8 72 3.5 SSW 9 13 5 7 1008.0 1006.8 0.0
27/07:30am 24.9 26.8 19.7 73 3.4 SW 9 13 5 7 1007.7 1006.5 0.0
27/07:00am 24.2 26.2 18.8 72 3.5 SW 6 7 3 4 1007.2 1006.0 0.0
27/06:30am 24.0 26.4 18.9 73 3.3 W 4 7 2 4 1006.8 1005.6 0.0
27/06:00am 24.3 27.5 18.9 72 3.5 CALM 0 0 0 0 1006.2 1004.9 0.0
27/05:30am 24.5 27.7 18.9 71 3.6 CALM 0 0 0 0 1005.9 1004.6 0.0
27/05:00am 24.5 27.8 19.1 72 3.5 CALM 0 0 0 0 1005.8 1004.5 0.0
27/04:30am 24.4 27.7 19.0 72 3.5 CALM 0 0 0 0 1005.6 1004.3 0.0
27/04:00am 24.5 27.8 19.1 72 3.5 CALM 0 0 0 0 1005.6 1004.3 0.0
27/03:30am 24.4 27.6 18.8 71 3.6 CALM 0 0 0 0 1005.6 1004.3 0.0
27/03:00am 24.4 26.2 18.8 71 3.6 W 7 11 4 6 1005.6 1004.3 0.0
27/02:30am 24.4 27.3 18.3 69 3.9 CALM 0 0 0 0 1005.4 1004.1 0.0
27/02:00am 24.3 27.3 18.5 70 3.7 CALM 0 0 0 0 1005.5 1004.2 0.0
27/01:30am 24.3 25.8 18.0 68 4.0 SW 7 9 4 5 1005.5 1004.2 0.0
27/01:00am 25.5 27.0 18.9 67 4.3 S 9 11 5 6 1005.5 1004.2 0.0
27/12:30am 26.0 26.7 18.9 65 4.6 SSW 13 19 7 10 1005.5 1004.2 0.0
27/12:00am 26.5 26.2 19.1 64 4.8 SW 19 24 10 13 1005.7 1004.4 0.0
 
Date/Time
EDT
Temp
°C
App
Temp
°C
Dew
Point
°C
Rel
Hum
%
Delta-T
°C
Wind Press
QNH
hPa
Press
MSL
hPa
Rain since
9am
mm
Dir  Spd
km/h
Gust
km/h
Spd
kts
Gust
kts
26/11:30pm 26.9 26.4 19.0 62 5.1 SW 20 32 11 17 1005.7 1004.4 0.0
26/11:00pm 27.7 26.6 18.7 58 5.8 SW 22 32 12 17 1005.7 1004.4 0.0
26/10:30pm 28.1 25.8 18.5 56 6.2 SW 28 41 15 22 1005.4 1004.1 0.0
26/10:00pm 28.9 26.1 17.4 49 7.3 W 28 43 15 23 1004.8 1003.5 0.0
26/09:30pm 31.3 29.0 15.7 39 9.8 WNW 22 39 12 21 1004.1 1002.8 0.0
26/09:00pm 31.5 31.2 13.3 33 11.0 N 7 9 4 5 1003.4 1002.2 0.0
26/08:30pm 31.4 31.1 12.7 32 11.2 N 6 9 3 5 1003.1 1001.9 0.0
26/08:00pm 32.4 31.5 12.6 30 11.9 NNE 9 11 5 6 1002.6 1001.3 0.0
26/07:30pm 33.9 31.2 11.7 26 13.2 NNW 17 20 9 11 1002.4 1001.1 0.0
26/07:00pm 34.0 30.4 11.8 26 13.3 NW 22 33 12 18 1002.0 1000.7 0.0
26/06:37pm 34.6 28.9 11.1 24 13.9 NW 32 50 17 27 1001.5 1000.2 0.0
26/06:30pm 34.7 28.8 11.2 24 13.9 NW 33 50 18 27 1001.4 1000.1 0.0
26/06:28pm 34.6 28.9 11.1 24 13.9 NW 32 48 17 26 1001.2 999.9 0.0
26/06:00pm 34.9 31.3 10.7 23 14.3 WNW 20 30 11 16 1001.4 1000.1 0.0
26/05:30pm 35.3 33.4 11.7 24 14.1 NW 13 17 7 9 1001.6 1000.3 0.0
26/05:00pm 34.8 31.6 11.9 25 13.8 NW 20 32 11 17 1001.8 1000.5 0.0
26/04:30pm 35.4 30.6 11.7 23 14.2 NW 28 43 15 23 1001.7 1000.4 0.0
26/04:00pm 36.1 33.2 12.3 24 14.5 WNW 19 26 10 14 1001.8 1000.5 0.0
26/03:30pm 36.3 31.6 11.9 23 14.7 NW 28 39 15 21 1001.9 1000.6 0.0
26/03:00pm 37.7 32.7 12.3 22 15.5 NW 30 43 16 23 1002.1 1000.8 0.0
26/02:30pm 36.3 32.0 11.9 23 14.7 NW 26 33 14 18 1002.6 1001.3 0.0
26/02:00pm 35.6 30.5 11.9 24 14.3 NNW 30 41 16 22 1002.9 1001.7 0.0
26/01:38pm 37.3 32.6 12.0 22 15.3 NNW 28 46 15 25 1002.9 1001.7 0.0
26/01:30pm 35.4 31.4 13.0 26 13.7 N 26 35 14 19 1003.0 1001.8 0.0
26/01:04pm 36.8 32.0 11.6 22 15.2 NNW 28 48 15 26 1003.2 1002.0 0.0
26/01:00pm 37.2 33.7 13.3 24 14.8 NNW 24 37 13 20 1003.2 1002.0 0.0
26/12:30pm 34.8 31.0 13.6 28 13.0 N 26 43 14 23 1003.6 1002.3 0.0
26/12:03pm 34.8 30.8 14.1 28 12.8 N 28 46 15 25 1003.9 1002.6 0.0
26/12:00pm 35.1 30.6 13.9 28 13.1 N 30 46 16 25 1003.9 1002.6 0.0
26/11:30am 34.1 31.0 14.6 31 12.1 N 24 39 13 21 1004.3 1003.0 0.0
26/11:00am 33.2 29.3 14.3 32 11.7 N 28 41 15 22 1004.6 1003.3 0.0
26/10:30am 31.4 27.8 14.1 35 10.6 N 26 43 14 23 1004.9 1003.6 0.0
26/10:00am 31.3 26.9 14.0 35 10.6 N 30 43 16 23 1004.9 1003.6 0.0
26/09:30am 30.3 26.8 14.4 38 9.7 N 26 39 14 21 1005.1 1003.8 0.0
26/09:00am 27.4 25.1 14.1 44 8.0 N 19 32 10 17 1005.3 1004.0 0.0
26/08:30am 27.3 23.0 13.3 42 8.3 N 28 41 15 22 1005.1 1003.8 0.0
26/08:00am 26.9 24.6 12.9 42 8.3 N 17 26 9 14 1004.9 1003.6 0.0
26/07:30am 25.6 23.5 12.4 43 7.7 NNE 15 22 8 12 1004.7 1003.4 0.0
26/07:00am 24.2 22.4 12.2 47 6.9 NNE 13 19 7 10 1004.6 1003.3 0.0
26/06:30am 23.5 22.1 12.2 49 6.5 N 11 15 6 8 1004.5 1003.2 0.0
26/06:00am 23.5 22.1 12.2 49 6.5 N 11 15 6 8 1004.2 1002.9 0.0
26/05:30am 24.2 22.8 12.2 47 6.9 N 11 17 6 9 1003.9 1002.6 0.0
26/05:00am 24.7 22.9 12.0 45 7.3 N 13 19 7 10 1003.6 1002.3 0.0
26/04:30am 25.1 22.9 12.0 44 7.5 N 15 20 8 11 1003.4 1002.2 0.0
26/04:00am 25.1 23.3 12.0 44 7.6 N 13 19 7 10 1003.4 1002.2 0.0
26/03:30am 25.7 23.4 11.8 42 8.0 N 15 24 8 13 1003.6 1002.3 0.0
26/03:00am 25.8 23.5 11.6 41 8.2 N 15 20 8 11 1003.9 1002.6 0.0
26/02:30am 26.4 24.0 11.3 39 8.7 N 15 20 8 11 1004.2 1002.9 0.0
26/02:00am 26.8 24.4 11.3 38 8.9 N 15 22 8 12 1004.4 1003.1 0.0

Other formats

Comma delimited format used in spreadsheet applications
http://www.bom.gov.au/fwo/IDN60801/IDN60801.95710.axf

JavaScript Object Notation format (JSON) in row-major order
http://www.bom.gov.au/fwo/IDN60801/IDN60801.95710.json

Data quality

Most of these data are generated automatically and are frequently updated. Quality checks on data are not normally performed. It is possible for incorrect values to appear. Refer to information at About Latest Weather Observations and please check the disclaimer before using these data.